sensor_id;sensor_type;location;lat;lon;timestamp;P1;durP1;ratioP1;P2;durP2;ratioP2
59314;SDS011;46521;50.160;20.802;2023-05-10T00:11:37;7.18;;;3.58;;
59314;SDS011;46521;50.160;20.802;2023-05-10T00:21:38;8.83;;;3.83;;
59314;SDS011;46521;50.160;20.802;2023-05-10T00:31:40;9.03;;;3.83;;
59314;SDS011;46521;50.160;20.802;2023-05-10T00:41:41;9.07;;;3.87;;
59314;SDS011;46521;50.160;20.802;2023-05-10T00:51:43;7.80;;;3.33;;
59314;SDS011;46521;50.160;20.802;2023-05-10T01:01:45;7.30;;;3.35;;
59314;SDS011;46521;50.160;20.802;2023-05-10T01:11:47;8.28;;;3.35;;
59314;SDS011;46521;50.160;20.802;2023-05-10T01:32:40;8.35;;;3.35;;
59314;SDS011;46521;50.160;20.802;2023-05-10T01:42:51;7.83;;;3.48;;
59314;SDS011;46521;50.160;20.802;2023-05-10T01:53:01;9.00;;;3.40;;
59314;SDS011;46521;50.160;20.802;2023-05-10T02:03:06;8.17;;;3.50;;
59314;SDS011;46521;50.160;20.802;2023-05-10T02:13:09;7.73;;;3.60;;
59314;SDS011;46521;50.160;20.802;2023-05-10T02:23:12;7.70;;;3.20;;
59314;SDS011;46521;50.160;20.802;2023-05-10T02:33:15;9.53;;;4.07;;
59314;SDS011;46521;50.160;20.802;2023-05-10T02:43:17;7.75;;;3.50;;
59314;SDS011;46521;50.160;20.802;2023-05-10T02:53:21;8.60;;;3.60;;
59314;SDS011;46521;50.160;20.802;2023-05-10T03:03:26;7.30;;;3.75;;
59314;SDS011;46521;50.160;20.802;2023-05-10T03:23:53;8.05;;;3.90;;
59314;SDS011;46521;50.160;20.802;2023-05-10T03:34:07;8.20;;;3.90;;
59314;SDS011;46521;50.160;20.802;2023-05-10T03:44:09;7.87;;;4.20;;
59314;SDS011;46521;50.160;20.802;2023-05-10T03:54:10;9.27;;;3.63;;
59314;SDS011;46521;50.160;20.802;2023-05-10T04:04:12;7.78;;;3.75;;
59314;SDS011;46521;50.160;20.802;2023-05-10T04:14:13;6.70;;;3.35;;
59314;SDS011;46521;50.160;20.802;2023-05-10T04:24:15;7.80;;;3.25;;
59314;SDS011;46521;50.160;20.802;2023-05-10T04:34:16;7.78;;;3.55;;
59314;SDS011;46521;50.160;20.802;2023-05-10T04:44:18;9.50;;;3.30;;
59314;SDS011;46521;50.160;20.802;2023-05-10T04:54:19;7.60;;;3.47;;
59314;SDS011;46521;50.160;20.802;2023-05-10T05:04:21;7.67;;;3.70;;
59314;SDS011;46521;50.160;20.802;2023-05-10T05:14:24;8.35;;;3.90;;
59314;SDS011;46521;50.160;20.802;2023-05-10T05:24:28;8.50;;;3.83;;
59314;SDS011;46521;50.160;20.802;2023-05-10T05:34:29;9.27;;;3.87;;
59314;SDS011;46521;50.160;20.802;2023-05-10T05:44:31;8.00;;;3.43;;
59314;SDS011;46521;50.160;20.802;2023-05-10T05:54:32;7.50;;;3.88;;
59314;SDS011;46521;50.160;20.802;2023-05-10T06:04:34;8.05;;;4.35;;
59314;SDS011;46521;50.160;20.802;2023-05-10T06:14:35;8.10;;;3.70;;
59314;SDS011;46521;50.160;20.802;2023-05-10T06:24:37;7.00;;;3.20;;
59314;SDS011;46521;50.160;20.802;2023-05-10T06:34:38;7.80;;;3.85;;
59314;SDS011;46521;50.160;20.802;2023-05-10T06:44:40;9.03;;;3.95;;
59314;SDS011;46521;50.160;20.802;2023-05-10T06:54:42;7.55;;;3.45;;
59314;SDS011;46521;50.160;20.802;2023-05-10T07:04:44;8.00;;;3.70;;
59314;SDS011;46521;50.160;20.802;2023-05-10T07:14:45;6.58;;;3.25;;
59314;SDS011;46521;50.160;20.802;2023-05-10T07:24:47;7.55;;;3.05;;
59314;SDS011;46521;50.160;20.802;2023-05-10T07:34:48;8.93;;;3.57;;
59314;SDS011;46521;50.160;20.802;2023-05-10T07:44:50;7.13;;;3.20;;
59314;SDS011;46521;50.160;20.802;2023-05-10T07:54:52;7.10;;;3.10;;
59314;SDS011;46521;50.160;20.802;2023-05-10T08:04:54;6.10;;;2.80;;
59314;SDS011;46521;50.160;20.802;2023-05-10T08:14:56;6.70;;;2.80;;
59314;SDS011;46521;50.160;20.802;2023-05-10T08:24:58;6.25;;;2.78;;
59314;SDS011;46521;50.160;20.802;2023-05-10T08:34:59;6.73;;;2.97;;
59314;SDS011;46521;50.160;20.802;2023-05-10T08:45:01;5.53;;;2.87;;
59314;SDS011;46521;50.160;20.802;2023-05-10T08:55:04;5.30;;;2.70;;
59314;SDS011;46521;50.160;20.802;2023-05-10T09:05:06;6.90;;;2.50;;
59314;SDS011;46521;50.160;20.802;2023-05-10T09:15:08;6.43;;;2.68;;
59314;SDS011;46521;50.160;20.802;2023-05-10T09:25:11;5.70;;;2.30;;
59314;SDS011;46521;50.160;20.802;2023-05-10T09:35:15;5.10;;;2.20;;
59314;SDS011;46521;50.160;20.802;2023-05-10T09:45:21;7.25;;;2.60;;
59314;SDS011;46521;50.160;20.802;2023-05-10T09:55:46;5.90;;;2.40;;
59314;SDS011;46521;50.160;20.802;2023-05-10T10:05:47;5.07;;;2.20;;
59314;SDS011;46521;50.160;20.802;2023-05-10T10:15:49;11.30;;;2.87;;
59314;SDS011;46521;50.160;20.802;2023-05-10T10:25:52;5.95;;;2.70;;
59314;SDS011;46521;50.160;20.802;2023-05-10T10:35:57;5.85;;;2.25;;
59314;SDS011;46521;50.160;20.802;2023-05-10T10:46:11;7.30;;;2.60;;
59314;SDS011;46521;50.160;20.802;2023-05-10T10:56:14;3.67;;;1.87;;
59314;SDS011;46521;50.160;20.802;2023-05-10T11:06:17;5.20;;;2.50;;
59314;SDS011;46521;50.160;20.802;2023-05-10T11:16:40;4.63;;;2.30;;
59314;SDS011;46521;50.160;20.802;2023-05-10T11:26:43;5.17;;;2.30;;
59314;SDS011;46521;50.160;20.802;2023-05-10T11:36:45;8.85;;;2.45;;
59314;SDS011;46521;50.160;20.802;2023-05-10T11:46:52;6.10;;;2.35;;
59314;SDS011;46521;50.160;20.802;2023-05-10T11:56:54;41.93;;;6.93;;
59314;SDS011;46521;50.160;20.802;2023-05-10T12:06:55;6.50;;;2.67;;
59314;SDS011;46521;50.160;20.802;2023-05-10T12:16:57;8.47;;;2.43;;
59314;SDS011;46521;50.160;20.802;2023-05-10T12:26:58;6.88;;;2.50;;
59314;SDS011;46521;50.160;20.802;2023-05-10T12:37:00;6.55;;;2.35;;
59314;SDS011;46521;50.160;20.802;2023-05-10T12:47:03;6.30;;;2.20;;
59314;SDS011;46521;50.160;20.802;2023-05-10T12:57:04;6.03;;;2.40;;
59314;SDS011;46521;50.160;20.802;2023-05-10T13:07:06;7.10;;;2.60;;
59314;SDS011;46521;50.160;20.802;2023-05-10T13:17:08;5.83;;;2.55;;
59314;SDS011;46521;50.160;20.802;2023-05-10T13:27:09;6.95;;;2.45;;
59314;SDS011;46521;50.160;20.802;2023-05-10T13:37:11;6.00;;;2.50;;
59314;SDS011;46521;50.160;20.802;2023-05-10T13:47:12;5.67;;;2.30;;
59314;SDS011;46521;50.160;20.802;2023-05-10T13:57:14;5.33;;;2.60;;
59314;SDS011;46521;50.160;20.802;2023-05-10T14:07:17;6.70;;;3.10;;
59314;SDS011;46521;50.160;20.802;2023-05-10T14:17:19;5.33;;;1.93;;
59314;SDS011;46521;50.160;20.802;2023-05-10T14:27:20;5.70;;;2.27;;
59314;SDS011;46521;50.160;20.802;2023-05-10T14:37:22;5.90;;;2.35;;
59314;SDS011;46521;50.160;20.802;2023-05-10T14:47:23;5.23;;;2.30;;
59314;SDS011;46521;50.160;20.802;2023-05-10T14:57:25;6.80;;;2.30;;
59314;SDS011;46521;50.160;20.802;2023-05-10T15:07:26;5.10;;;2.20;;
59314;SDS011;46521;50.160;20.802;2023-05-10T15:17:28;5.33;;;2.37;;
59314;SDS011;46521;50.160;20.802;2023-05-10T15:27:29;7.08;;;2.40;;
59314;SDS011;46521;50.160;20.802;2023-05-10T15:37:31;5.30;;;2.50;;
59314;SDS011;46521;50.160;20.802;2023-05-10T15:47:32;7.28;;;2.20;;
59314;SDS011;46521;50.160;20.802;2023-05-10T15:57:34;5.90;;;2.90;;
59314;SDS011;46521;50.160;20.802;2023-05-10T16:07:35;7.80;;;2.58;;
59314;SDS011;46521;50.160;20.802;2023-05-10T16:17:37;7.67;;;2.80;;
59314;SDS011;46521;50.160;20.802;2023-05-10T16:27:38;5.50;;;2.47;;
59314;SDS011;46521;50.160;20.802;2023-05-10T16:37:40;8.80;;;3.30;;
59314;SDS011;46521;50.160;20.802;2023-05-10T16:47:42;5.90;;;2.55;;
59314;SDS011;46521;50.160;20.802;2023-05-10T16:57:43;5.68;;;2.75;;
59314;SDS011;46521;50.160;20.802;2023-05-10T17:07:45;7.63;;;3.00;;
59314;SDS011;46521;50.160;20.802;2023-05-10T17:17:46;7.70;;;3.40;;
59314;SDS011;46521;50.160;20.802;2023-05-10T17:27:48;6.30;;;2.55;;
59314;SDS011;46521;50.160;20.802;2023-05-10T17:37:49;6.45;;;3.10;;
59314;SDS011;46521;50.160;20.802;2023-05-10T17:47:51;7.13;;;2.73;;
59314;SDS011;46521;50.160;20.802;2023-05-10T17:57:53;9.45;;;3.65;;
59314;SDS011;46521;50.160;20.802;2023-05-10T18:07:58;9.90;;;5.17;;
59314;SDS011;46521;50.160;20.802;2023-05-10T18:18:05;10.77;;;4.57;;
59314;SDS011;46521;50.160;20.802;2023-05-10T18:28:07;12.15;;;5.85;;
59314;SDS011;46521;50.160;20.802;2023-05-10T18:38:09;10.80;;;4.63;;
59314;SDS011;46521;50.160;20.802;2023-05-10T18:48:11;10.70;;;5.05;;
59314;SDS011;46521;50.160;20.802;2023-05-10T18:58:12;10.53;;;5.55;;
59314;SDS011;46521;50.160;20.802;2023-05-10T19:08:14;11.90;;;5.95;;
59314;SDS011;46521;50.160;20.802;2023-05-10T19:18:16;12.68;;;4.70;;
59314;SDS011;46521;50.160;20.802;2023-05-10T19:28:18;10.70;;;5.20;;
59314;SDS011;46521;50.160;20.802;2023-05-10T19:38:19;9.35;;;5.23;;
59314;SDS011;46521;50.160;20.802;2023-05-10T19:48:22;8.90;;;4.87;;
59314;SDS011;46521;50.160;20.802;2023-05-10T19:58:23;11.80;;;5.23;;
59314;SDS011;46521;50.160;20.802;2023-05-10T20:08:24;9.80;;;4.90;;
59314;SDS011;46521;50.160;20.802;2023-05-10T20:18:26;8.35;;;4.20;;
59314;SDS011;46521;50.160;20.802;2023-05-10T20:28:27;8.93;;;4.28;;
59314;SDS011;46521;50.160;20.802;2023-05-10T20:38:29;8.43;;;4.25;;
59314;SDS011;46521;50.160;20.802;2023-05-10T20:48:31;10.40;;;4.50;;
59314;SDS011;46521;50.160;20.802;2023-05-10T20:58:32;10.65;;;4.40;;
59314;SDS011;46521;50.160;20.802;2023-05-10T21:08:35;10.67;;;4.83;;
59314;SDS011;46521;50.160;20.802;2023-05-10T21:18:36;10.67;;;5.40;;
59314;SDS011;46521;50.160;20.802;2023-05-10T21:28:38;9.65;;;4.80;;
59314;SDS011;46521;50.160;20.802;2023-05-10T21:38:41;9.60;;;4.30;;
59314;SDS011;46521;50.160;20.802;2023-05-10T21:48:44;9.45;;;5.10;;
59314;SDS011;46521;50.160;20.802;2023-05-10T21:58:45;11.60;;;4.30;;
59314;SDS011;46521;50.160;20.802;2023-05-10T22:08:47;8.83;;;4.27;;
59314;SDS011;46521;50.160;20.802;2023-05-10T22:18:48;10.17;;;4.80;;
59314;SDS011;46521;50.160;20.802;2023-05-10T22:28:50;9.37;;;4.00;;
59314;SDS011;46521;50.160;20.802;2023-05-10T22:38:52;10.00;;;4.10;;
59314;SDS011;46521;50.160;20.802;2023-05-10T22:48:53;9.00;;;4.00;;
59314;SDS011;46521;50.160;20.802;2023-05-10T22:58:55;8.25;;;3.90;;
59314;SDS011;46521;50.160;20.802;2023-05-10T23:08:57;9.85;;;4.90;;
59314;SDS011;46521;50.160;20.802;2023-05-10T23:18:58;8.95;;;4.60;;
59314;SDS011;46521;50.160;20.802;2023-05-10T23:29:03;10.53;;;5.67;;
59314;SDS011;46521;50.160;20.802;2023-05-10T23:39:04;9.40;;;5.35;;
59314;SDS011;46521;50.160;20.802;2023-05-10T23:49:06;9.73;;;5.03;;
